EJU13NF LIRN-LSGG
Flight info
| Callsign | EJU13NF |
|---|---|
| Flight time | N/A |
| Altitude | 38000 |
| Route | ALAXI DCT INSOX DCT OKDEB DCT PEMAR DCT TIBER DCT TINKU DCT TONDA/N0370F220 DCT AOSTA L615 BANKO |
| Aircraft | A320/M-SDE3FGHIRWY/LB1 |
Departure
| Time | 2026-05-05 12:53 |
|---|---|
| Airport | Naples International Airport (LIRN) |
Arrival
| Time | N/A |
|---|---|
| Airport | Geneva International Airport (LSGG) |
| Time | Latitude | Longitude | Altitude | Speed | Heading |
|---|---|---|---|---|---|
| 2026-05-05 12:23 | 40.88115 | 14.28550 | 283 ft | 0 kts | 328° |
| 2026-05-05 12:44 | 40.88102 | 14.28561 | 283 ft | 4 kts | 328° |
| 2026-05-05 12:44 | 40.88079 | 14.28580 | 288 ft | 4 kts | 334° |
| 2026-05-05 12:44 | 40.88054 | 14.28591 | 286 ft | 4 kts | 0° |
| 2026-05-05 12:45 | 40.88031 | 14.28582 | 284 ft | 3 kts | 47° |
| 2026-05-05 12:45 | 40.88026 | 14.28574 | 284 ft | 0 kts | 50° |
| 2026-05-05 12:47 | 40.88029 | 14.28579 | 284 ft | 2 kts | 50° |
| 2026-05-05 12:48 | 40.88054 | 14.28621 | 283 ft | 12 kts | 52° |
| 2026-05-05 12:48 | 40.88130 | 14.28751 | 280 ft | 21 kts | 52° |
| 2026-05-05 12:48 | 40.88224 | 14.28915 | 276 ft | 24 kts | 53° |
| 2026-05-05 12:48 | 40.88332 | 14.29102 | 271 ft | 28 kts | 52° |
| 2026-05-05 12:49 | 40.88455 | 14.29316 | 266 ft | 31 kts | 53° |
| 2026-05-05 12:49 | 40.88579 | 14.29530 | 260 ft | 30 kts | 52° |
| 2026-05-05 12:49 | 40.88699 | 14.29738 | 254 ft | 29 kts | 53° |
| 2026-05-05 12:49 | 40.88827 | 14.29960 | 246 ft | 32 kts | 52° |
| 2026-05-05 12:50 | 40.88942 | 14.30160 | 239 ft | 17 kts | 52° |
| 2026-05-05 12:50 | 40.89024 | 14.30300 | 234 ft | 21 kts | 52° |
| 2026-05-05 12:50 | 40.89076 | 14.30391 | 230 ft | 12 kts | 52° |
| 2026-05-05 12:50 | 40.89125 | 14.30447 | 230 ft | 6 kts | 21° |
| 2026-05-05 12:51 | 40.89133 | 14.30449 | 228 ft | 1 kts | 14° |
| 2026-05-05 12:51 | 40.89146 | 14.30453 | 227 ft | 3 kts | 7° |
| 2026-05-05 12:51 | 40.89172 | 14.30443 | 227 ft | 5 kts | 330° |
| 2026-05-05 12:51 | 40.89197 | 14.30422 | 226 ft | 4 kts | 328° |
| 2026-05-05 12:52 | 40.89215 | 14.30402 | 226 ft | 3 kts | 304° |
| 2026-05-05 12:52 | 40.89199 | 14.30338 | 230 ft | 14 kts | 238° |
| 2026-05-05 12:52 | 40.89063 | 14.30050 | 239 ft | 70 kts | 238° |
| 2026-05-05 12:52 | 40.88692 | 14.29264 | 263 ft | 129 kts | 238° |
| 2026-05-05 12:53 | 40.88144 | 14.28112 | 543 ft | 154 kts | 236° |
| 2026-05-05 12:53 | 40.87508 | 14.26993 | 1259 ft | 155 kts | 218° |
| 2026-05-05 12:53 | 40.86487 | 14.26556 | 1924 ft | 160 kts | 178° |
| 2026-05-05 12:53 | 40.85370 | 14.26758 | 2555 ft | 163 kts | 173° |
| 2026-05-05 12:54 | 40.83138 | 14.27066 | 3854 ft | 162 kts | 176° |
| 2026-05-05 12:54 | 40.81934 | 14.27206 | 4106 ft | 186 kts | 177° |
| 2026-05-05 12:54 | 40.80601 | 14.27364 | 4561 ft | 195 kts | 176° |
| 2026-05-05 12:55 | 40.79240 | 14.27538 | 5109 ft | 201 kts | 176° |
| 2026-05-05 12:55 | 40.77836 | 14.27721 | 5680 ft | 204 kts | 177° |
| 2026-05-05 12:55 | 40.76421 | 14.27907 | 6274 ft | 206 kts | 177° |
| 2026-05-05 12:55 | 40.74988 | 14.28094 | 6843 ft | 208 kts | 178° |
| 2026-05-05 12:56 | 40.73548 | 14.28295 | 7412 ft | 209 kts | 174° |
| 2026-05-05 12:56 | 40.72222 | 14.29128 | 7963 ft | 220 kts | 138° |
| 2026-05-05 12:56 | 40.71516 | 14.30937 | 8487 ft | 232 kts | 100° |
| 2026-05-05 12:56 | 40.71624 | 14.33160 | 8769 ft | 253 kts | 81° |
| 2026-05-05 12:57 | 40.71962 | 14.35475 | 9434 ft | 260 kts | 79° |
| 2026-05-05 12:57 | 40.72344 | 14.37825 | 10165 ft | 264 kts | 78° |
| 2026-05-05 12:57 | 40.73012 | 14.40088 | 10827 ft | 269 kts | 53° |
| 2026-05-05 12:57 | 40.73861 | 14.41267 | 11272 ft | 269 kts | 33° |
| 2026-05-05 12:58 | 40.75560 | 14.42287 | 11776 ft | 276 kts | 5° |
| 2026-05-05 12:58 | 40.77513 | 14.42178 | 12059 ft | 291 kts | 345° |
| 2026-05-05 12:58 | 40.79585 | 14.41653 | 12315 ft | 315 kts | 345° |
| 2026-05-05 12:58 | 40.81814 | 14.41076 | 12619 ft | 336 kts | 345° |
| 2026-05-05 12:59 | 40.84141 | 14.40478 | 13262 ft | 344 kts | 346° |
| 2026-05-05 12:59 | 40.86507 | 14.39879 | 13985 ft | 348 kts | 346° |
| 2026-05-05 12:59 | 40.88900 | 14.39285 | 14676 ft | 351 kts | 346° |
| 2026-05-05 13:00 | 40.93526 | 14.37380 | 16041 ft | 348 kts | 327° |
| 2026-05-05 13:00 | 40.95481 | 14.35519 | 16705 ft | 346 kts | 316° |
| 2026-05-05 13:01 | 41.01017 | 14.29304 | 18695 ft | 353 kts | 316° |
| 2026-05-05 13:01 | 41.02903 | 14.27194 | 19285 ft | 355 kts | 316° |
| 2026-05-05 13:01 | 41.04796 | 14.25075 | 19889 ft | 357 kts | 316° |
| 2026-05-05 13:01 | 41.06699 | 14.22943 | 20467 ft | 359 kts | 315° |
| 2026-05-05 13:02 | 41.08613 | 14.20796 | 21040 ft | 362 kts | 315° |
| 2026-05-05 13:02 | 41.10546 | 14.18625 | 21591 ft | 365 kts | 315° |
| 2026-05-05 13:02 | 41.12493 | 14.16438 | 22123 ft | 369 kts | 315° |
| 2026-05-05 13:02 | 41.14460 | 14.14230 | 22647 ft | 371 kts | 315° |
| 2026-05-05 13:03 | 41.16441 | 14.12007 | 23154 ft | 374 kts | 315° |
| 2026-05-05 13:03 | 41.18432 | 14.09768 | 23675 ft | 376 kts | 315° |
| 2026-05-05 13:03 | 41.20435 | 14.07515 | 24105 ft | 379 kts | 315° |
| 2026-05-05 13:03 | 41.22450 | 14.05246 | 24509 ft | 381 kts | 314° |
| 2026-05-05 13:04 | 41.24475 | 14.02961 | 24929 ft | 383 kts | 314° |
| 2026-05-05 13:04 | 41.26506 | 14.00661 | 25340 ft | 385 kts | 314° |
| 2026-05-05 13:04 | 41.28556 | 13.98337 | 25744 ft | 388 kts | 314° |
| 2026-05-05 13:04 | 41.30519 | 13.95892 | 26138 ft | 386 kts | 308° |
| 2026-05-05 13:05 | 41.32337 | 13.93322 | 26554 ft | 387 kts | 308° |
| 2026-05-05 13:05 | 41.34192 | 13.90705 | 26959 ft | 389 kts | 308° |
| 2026-05-05 13:05 | 41.36056 | 13.88077 | 27383 ft | 391 kts | 308° |
| 2026-05-05 13:05 | 41.37923 | 13.85440 | 27849 ft | 391 kts | 307° |
| 2026-05-05 13:06 | 41.39794 | 13.82794 | 28205 ft | 394 kts | 307° |
| 2026-05-05 13:06 | 41.41675 | 13.80133 | 28569 ft | 396 kts | 307° |
| 2026-05-05 13:06 | 41.43570 | 13.77450 | 28952 ft | 398 kts | 307° |
| 2026-05-05 13:06 | 41.45472 | 13.74757 | 29341 ft | 399 kts | 307° |
| 2026-05-05 13:07 | 41.47379 | 13.72054 | 29729 ft | 401 kts | 307° |
| 2026-05-05 13:07 | 41.49293 | 13.69340 | 30114 ft | 402 kts | 307° |
| 2026-05-05 13:07 | 41.51213 | 13.66615 | 30422 ft | 404 kts | 307° |
| 2026-05-05 13:07 | 41.53142 | 13.63872 | 30710 ft | 406 kts | 307° |
| 2026-05-05 13:08 | 41.55074 | 13.61116 | 30990 ft | 408 kts | 307° |
| 2026-05-05 13:08 | 41.57016 | 13.58342 | 31257 ft | 410 kts | 307° |
| 2026-05-05 13:08 | 41.58967 | 13.55555 | 31538 ft | 412 kts | 307° |
| 2026-05-05 13:08 | 41.60899 | 13.52797 | 31914 ft | 411 kts | 307° |
| 2026-05-05 13:09 | 41.62853 | 13.50008 | 32260 ft | 411 kts | 307° |
| 2026-05-05 13:09 | 41.64806 | 13.47212 | 32597 ft | 412 kts | 308° |
| 2026-05-05 13:09 | 41.66761 | 13.44412 | 32945 ft | 412 kts | 308° |
| 2026-05-05 13:09 | 41.68713 | 13.41615 | 33336 ft | 411 kts | 308° |
| 2026-05-05 13:10 | 41.70664 | 13.38820 | 33718 ft | 410 kts | 308° |
| 2026-05-05 13:10 | 41.72608 | 13.36034 | 34118 ft | 409 kts | 308° |
| 2026-05-05 13:10 | 41.74546 | 13.33250 | 34453 ft | 408 kts | 308° |
| 2026-05-05 13:10 | 41.76477 | 13.30466 | 34765 ft | 407 kts | 307° |
| 2026-05-05 13:11 | 41.78400 | 13.27683 | 35054 ft | 406 kts | 307° |
| 2026-05-05 13:11 | 41.80321 | 13.24905 | 35347 ft | 406 kts | 308° |
| 2026-05-05 13:11 | 41.82243 | 13.22129 | 35642 ft | 405 kts | 307° |
| 2026-05-05 13:11 | 41.84156 | 13.19359 | 35925 ft | 404 kts | 307° |
| 2026-05-05 13:12 | 41.86065 | 13.16591 | 36208 ft | 404 kts | 308° |
| 2026-05-05 13:12 | 41.87966 | 13.13824 | 36448 ft | 404 kts | 307° |
| 2026-05-05 13:12 | 41.89868 | 13.11050 | 36711 ft | 403 kts | 308° |
| 2026-05-05 13:12 | 41.91764 | 13.08290 | 36956 ft | 402 kts | 308° |
| 2026-05-05 13:13 | 41.93664 | 13.05529 | 37176 ft | 402 kts | 307° |
| 2026-05-05 13:13 | 41.95559 | 13.02776 | 37373 ft | 401 kts | 308° |
| 2026-05-05 13:13 | 41.97448 | 13.00028 | 37514 ft | 399 kts | 308° |
| 2026-05-05 13:13 | 41.99328 | 12.97286 | 37662 ft | 399 kts | 307° |
| 2026-05-05 13:14 | 42.01210 | 12.94534 | 37822 ft | 400 kts | 307° |
| 2026-05-05 13:14 | 42.03092 | 12.91778 | 38031 ft | 400 kts | 307° |
| 2026-05-05 13:14 | 42.06861 | 12.86278 | 38106 ft | 399 kts | 308° |
| 2026-05-05 13:15 | 42.10631 | 12.80801 | 38106 ft | 398 kts | 307° |
| 2026-05-05 13:15 | 42.14365 | 12.75355 | 38105 ft | 397 kts | 307° |
| 2026-05-05 13:16 | 42.18094 | 12.69896 | 38094 ft | 395 kts | 307° |
| 2026-05-05 13:16 | 42.21816 | 12.64437 | 38081 ft | 395 kts | 307° |
| 2026-05-05 13:17 | 42.25540 | 12.58971 | 38076 ft | 396 kts | 308° |
| 2026-05-05 13:17 | 42.29453 | 12.53716 | 38075 ft | 398 kts | 310° |
| 2026-05-05 13:18 | 42.33480 | 12.48577 | 38079 ft | 398 kts | 311° |
| 2026-05-05 13:18 | 42.37483 | 12.43396 | 38071 ft | 398 kts | 310° |
| 2026-05-05 13:19 | 42.41453 | 12.38156 | 38074 ft | 398 kts | 309° |
| 2026-05-05 13:19 | 42.45405 | 12.32908 | 38064 ft | 398 kts | 309° |
| 2026-05-05 13:20 | 42.49363 | 12.27648 | 38062 ft | 398 kts | 309° |
| 2026-05-05 13:20 | 42.53297 | 12.22429 | 38057 ft | 398 kts | 309° |
| 2026-05-05 13:21 | 42.57250 | 12.17170 | 38059 ft | 398 kts | 309° |
| 2026-05-05 13:21 | 42.61204 | 12.11909 | 38056 ft | 398 kts | 310° |
| 2026-05-05 13:22 | 42.65162 | 12.06639 | 38044 ft | 399 kts | 310° |
| 2026-05-05 13:22 | 42.69130 | 12.01342 | 38056 ft | 399 kts | 309° |
| 2026-05-05 13:23 | 42.73087 | 11.96036 | 38052 ft | 399 kts | 309° |
| 2026-05-05 13:23 | 42.77044 | 11.90726 | 38051 ft | 399 kts | 309° |
| 2026-05-05 13:24 | 42.80996 | 11.85410 | 38052 ft | 399 kts | 309° |
| 2026-05-05 13:24 | 42.84943 | 11.80095 | 38047 ft | 399 kts | 309° |
| 2026-05-05 13:25 | 42.88869 | 11.74791 | 38034 ft | 400 kts | 309° |
| 2026-05-05 13:25 | 42.92815 | 11.69460 | 38026 ft | 399 kts | 309° |
| 2026-05-05 13:26 | 42.96761 | 11.64119 | 38035 ft | 399 kts | 309° |
| 2026-05-05 13:26 | 43.00703 | 11.58761 | 38021 ft | 400 kts | 309° |
| 2026-05-05 13:27 | 43.04651 | 11.53395 | 38018 ft | 400 kts | 309° |
| 2026-05-05 13:27 | 43.08601 | 11.48015 | 38014 ft | 401 kts | 309° |
| 2026-05-05 13:28 | 43.12552 | 11.42621 | 38003 ft | 402 kts | 309° |
| 2026-05-05 13:28 | 43.16507 | 11.37209 | 38000 ft | 402 kts | 309° |
| 2026-05-05 13:29 | 43.20437 | 11.31825 | 37999 ft | 402 kts | 309° |
| 2026-05-05 13:29 | 43.24397 | 11.26391 | 38011 ft | 402 kts | 308° |
| 2026-05-05 13:30 | 43.28348 | 11.20956 | 38025 ft | 402 kts | 308° |
| 2026-05-05 13:30 | 43.32306 | 11.15500 | 38000 ft | 404 kts | 308° |
| 2026-05-05 13:31 | 43.36270 | 11.10020 | 37991 ft | 404 kts | 308° |
| 2026-05-05 13:31 | 43.40236 | 11.04531 | 37984 ft | 405 kts | 308° |
| 2026-05-05 13:32 | 43.44203 | 10.99025 | 37985 ft | 405 kts | 308° |
| 2026-05-05 13:32 | 43.48183 | 10.93508 | 37985 ft | 406 kts | 308° |
| 2026-05-05 13:33 | 43.52126 | 10.88020 | 37994 ft | 406 kts | 308° |
| 2026-05-05 13:33 | 43.56099 | 10.82481 | 37984 ft | 406 kts | 308° |
| 2026-05-05 13:34 | 43.60072 | 10.76924 | 37983 ft | 407 kts | 308° |
| 2026-05-05 13:34 | 43.64044 | 10.71352 | 37985 ft | 407 kts | 308° |
| 2026-05-05 13:35 | 43.68017 | 10.65780 | 37988 ft | 407 kts | 308° |
| 2026-05-05 13:35 | 43.71990 | 10.60197 | 37991 ft | 407 kts | 308° |
| 2026-05-05 13:36 | 43.75961 | 10.54597 | 37994 ft | 408 kts | 308° |
| 2026-05-05 13:36 | 43.79738 | 10.48746 | 37988 ft | 407 kts | 304° |
| 2026-05-05 13:37 | 43.83312 | 10.42681 | 37983 ft | 406 kts | 303° |
| 2026-05-05 13:37 | 43.86889 | 10.36597 | 37982 ft | 408 kts | 303° |
| 2026-05-05 13:38 | 43.90515 | 10.30550 | 37990 ft | 408 kts | 304° |
| 2026-05-05 13:38 | 43.94136 | 10.24542 | 37987 ft | 408 kts | 304° |
| 2026-05-05 13:39 | 43.97777 | 10.18487 | 38013 ft | 409 kts | 304° |
| 2026-05-05 13:39 | 44.01413 | 10.12418 | 38005 ft | 409 kts | 304° |
| 2026-05-05 13:40 | 44.05044 | 10.06330 | 37998 ft | 409 kts | 304° |
| 2026-05-05 13:40 | 44.08677 | 10.00221 | 37994 ft | 409 kts | 304° |
| 2026-05-05 13:41 | 44.12296 | 9.94108 | 37996 ft | 409 kts | 304° |
| 2026-05-05 13:41 | 44.15923 | 9.87992 | 37996 ft | 410 kts | 304° |
| 2026-05-05 13:42 | 44.19551 | 9.81870 | 38017 ft | 409 kts | 303° |
| 2026-05-05 13:42 | 44.23175 | 9.75743 | 37992 ft | 410 kts | 303° |
| 2026-05-05 13:43 | 44.26189 | 9.70628 | 37977 ft | 410 kts | 303° |
| 2026-05-05 13:43 | 44.29811 | 9.64465 | 37960 ft | 410 kts | 303° |
| 2026-05-05 13:44 | 44.33430 | 9.58307 | 37965 ft | 410 kts | 303° |
| 2026-05-05 13:44 | 44.37048 | 9.52136 | 37960 ft | 410 kts | 303° |
| 2026-05-05 13:45 | 44.40656 | 9.45963 | 37977 ft | 410 kts | 303° |
| 2026-05-05 13:45 | 44.44237 | 9.39808 | 37961 ft | 411 kts | 303° |
| 2026-05-05 13:46 | 44.47849 | 9.33593 | 37950 ft | 412 kts | 303° |
| 2026-05-05 13:46 | 44.51471 | 9.27364 | 37945 ft | 412 kts | 303° |
| 2026-05-05 13:47 | 44.55083 | 9.21128 | 37953 ft | 412 kts | 303° |
| 2026-05-05 13:47 | 44.58694 | 9.14881 | 37956 ft | 412 kts | 303° |
| 2026-05-05 13:48 | 44.62303 | 9.08630 | 37994 ft | 412 kts | 302° |
| 2026-05-05 13:48 | 44.65907 | 9.02361 | 37988 ft | 412 kts | 302° |
| 2026-05-05 13:49 | 44.69504 | 8.96086 | 37975 ft | 413 kts | 302° |
| 2026-05-05 13:49 | 44.73112 | 8.89797 | 37972 ft | 413 kts | 302° |
| 2026-05-05 13:50 | 44.76692 | 8.83536 | 37973 ft | 413 kts | 302° |
| 2026-05-05 13:50 | 44.80287 | 8.77231 | 37967 ft | 413 kts | 302° |
| 2026-05-05 13:51 | 44.83880 | 8.70925 | 37983 ft | 413 kts | 302° |
| 2026-05-05 13:51 | 44.87467 | 8.64613 | 37999 ft | 413 kts | 302° |
| 2026-05-05 13:52 | 44.91049 | 8.58281 | 37974 ft | 413 kts | 302° |
| 2026-05-05 13:52 | 44.94643 | 8.51939 | 37967 ft | 413 kts | 302° |
| 2026-05-05 13:53 | 44.98239 | 8.45589 | 37964 ft | 414 kts | 302° |
| 2026-05-05 13:53 | 45.01827 | 8.39225 | 37975 ft | 414 kts | 301° |
| 2026-05-05 13:54 | 45.05410 | 8.32839 | 37966 ft | 415 kts | 301° |
| 2026-05-05 13:54 | 45.08973 | 8.26476 | 37978 ft | 415 kts | 301° |
| 2026-05-05 13:55 | 45.12925 | 8.20421 | 37968 ft | 425 kts | 311° |
| 2026-05-05 13:55 | 45.17336 | 8.14842 | 37969 ft | 425 kts | 311° |
| 2026-05-05 13:56 | 45.21750 | 8.09249 | 37984 ft | 426 kts | 311° |
| 2026-05-05 13:56 | 45.26163 | 8.03632 | 37974 ft | 427 kts | 310° |
| 2026-05-05 13:57 | 45.30590 | 7.97981 | 37995 ft | 428 kts | 310° |
| 2026-05-05 13:57 | 45.35045 | 7.92275 | 37735 ft | 439 kts | 310° |
| 2026-05-05 13:58 | 45.37324 | 7.89347 | 37458 ft | 443 kts | 310° |
| 2026-05-05 13:58 | 45.39613 | 7.86415 | 37192 ft | 442 kts | 310° |
| 2026-05-05 13:58 | 45.41892 | 7.83506 | 36724 ft | 438 kts | 310° |
| 2026-05-05 13:58 | 45.44150 | 7.80625 | 36203 ft | 434 kts | 310° |
| 2026-05-05 13:59 | 45.48585 | 7.74931 | 35175 ft | 429 kts | 309° |
| 2026-05-05 13:59 | 45.50786 | 7.72094 | 34658 ft | 425 kts | 309° |
| 2026-05-05 14:00 | 45.55143 | 7.66465 | 33581 ft | 421 kts | 308° |
| 2026-05-05 14:00 | 45.57303 | 7.63672 | 33087 ft | 418 kts | 308° |
| 2026-05-05 14:00 | 45.59451 | 7.60896 | 32586 ft | 415 kts | 308° |
| 2026-05-05 14:00 | 45.61581 | 7.58142 | 32090 ft | 411 kts | 308° |
| 2026-05-05 14:01 | 45.63692 | 7.55408 | 31600 ft | 407 kts | 308° |
| 2026-05-05 14:01 | 45.65776 | 7.52698 | 31122 ft | 404 kts | 308° |
| 2026-05-05 14:01 | 45.67850 | 7.49996 | 30644 ft | 401 kts | 308° |
| 2026-05-05 14:01 | 45.69907 | 7.47315 | 30176 ft | 398 kts | 308° |
| 2026-05-05 14:02 | 45.71943 | 7.44661 | 29698 ft | 394 kts | 308° |
| 2026-05-05 14:02 | 45.73953 | 7.42045 | 29263 ft | 388 kts | 309° |
| 2026-05-05 14:02 | 45.75926 | 7.39472 | 28832 ft | 383 kts | 308° |
| 2026-05-05 14:02 | 45.77665 | 7.36694 | 28420 ft | 367 kts | 297° |
| 2026-05-05 14:03 | 45.78956 | 7.33616 | 28018 ft | 354 kts | 287° |
| 2026-05-05 14:03 | 45.79812 | 7.30376 | 27637 ft | 342 kts | 278° |
| 2026-05-05 14:03 | 45.80260 | 7.27083 | 27263 ft | 332 kts | 270° |
| 2026-05-05 14:03 | 45.80518 | 7.23830 | 26881 ft | 326 kts | 270° |
| 2026-05-05 14:04 | 45.80779 | 7.20632 | 26517 ft | 321 kts | 270° |
| 2026-05-05 14:04 | 45.81039 | 7.17464 | 26125 ft | 319 kts | 270° |
| 2026-05-05 14:04 | 45.81295 | 7.14343 | 25743 ft | 312 kts | 271° |
| 2026-05-05 14:04 | 45.81548 | 7.11273 | 25373 ft | 307 kts | 271° |
| 2026-05-05 14:05 | 45.81819 | 7.08230 | 24975 ft | 310 kts | 275° |
| 2026-05-05 14:05 | 45.82422 | 7.05232 | 24518 ft | 317 kts | 286° |
| 2026-05-05 14:05 | 45.83437 | 7.02449 | 24088 ft | 324 kts | 297° |
| 2026-05-05 14:05 | 45.84732 | 6.99741 | 23642 ft | 325 kts | 298° |
| 2026-05-05 14:06 | 45.86003 | 6.97090 | 23155 ft | 328 kts | 298° |
| 2026-05-05 14:06 | 45.87295 | 6.94397 | 22684 ft | 327 kts | 298° |
| 2026-05-05 14:06 | 45.88578 | 6.91718 | 22243 ft | 324 kts | 298° |
| 2026-05-05 14:06 | 45.89855 | 6.89044 | 21814 ft | 324 kts | 298° |
| 2026-05-05 14:07 | 45.91125 | 6.86375 | 21386 ft | 324 kts | 298° |
| 2026-05-05 14:07 | 45.92393 | 6.83698 | 20966 ft | 323 kts | 298° |
| 2026-05-05 14:07 | 45.93659 | 6.81019 | 20542 ft | 323 kts | 298° |
| 2026-05-05 14:07 | 45.94919 | 6.78352 | 20122 ft | 322 kts | 298° |
| 2026-05-05 14:08 | 45.96180 | 6.75685 | 19736 ft | 323 kts | 298° |
| 2026-05-05 14:08 | 45.97433 | 6.73011 | 19348 ft | 322 kts | 298° |
| 2026-05-05 14:08 | 45.98678 | 6.70329 | 18939 ft | 323 kts | 298° |
| 2026-05-05 14:08 | 45.99906 | 6.67670 | 18546 ft | 322 kts | 298° |
| 2026-05-05 14:09 | 46.01145 | 6.64984 | 18140 ft | 323 kts | 298° |
| 2026-05-05 14:09 | 46.02387 | 6.62287 | 17715 ft | 323 kts | 298° |
| 2026-05-05 14:09 | 46.03624 | 6.59611 | 17301 ft | 318 kts | 298° |